sensor_id;sensor_type;location;lat;lon;timestamp;temperature;humidity
7000;DHT22;3540;53.242;10.408;2023-03-23T00:01:08;10.40;99.90
7000;DHT22;3540;53.242;10.408;2023-03-23T00:03:39;10.40;99.90
7000;DHT22;3540;53.242;10.408;2023-03-23T00:06:05;10.40;1.00
7000;DHT22;3540;53.242;10.408;2023-03-23T00:08:39;10.40;1.00
7000;DHT22;3540;53.242;10.408;2023-03-23T00:11:18;10.30;1.00
7000;DHT22;3540;53.242;10.408;2023-03-23T00:13:46;10.30;99.90
7000;DHT22;3540;53.242;10.408;2023-03-23T00:16:13;10.30;1.00
7000;DHT22;3540;53.242;10.408;2023-03-23T00:18:50;10.30;99.90
7000;DHT22;3540;53.242;10.408;2023-03-23T00:21:18;10.20;1.00
7000;DHT22;3540;53.242;10.408;2023-03-23T00:23:44;10.20;1.00
7000;DHT22;3540;53.242;10.408;2023-03-23T00:26:11;10.10;99.90
7000;DHT22;3540;53.242;10.408;2023-03-23T00:28:37;10.00;66.30
7000;DHT22;3540;53.242;10.408;2023-03-23T00:31:06;10.00;99.90
7000;DHT22;3540;53.242;10.408;2023-03-23T00:33:34;10.00;1.00
7000;DHT22;3540;53.242;10.408;2023-03-23T00:36:04;10.00;9.40
7000;DHT22;3540;53.242;10.408;2023-03-23T00:38:31;9.90;99.90
7000;DHT22;3540;53.242;10.408;2023-03-23T00:40:56;9.90;99.90
7000;DHT22;3540;53.242;10.408;2023-03-23T00:43:23;9.90;99.90
7000;DHT22;3540;53.242;10.408;2023-03-23T00:45:50;9.90;99.90
7000;DHT22;3540;53.242;10.408;2023-03-23T00:48:21;9.90;99.90
7000;DHT22;3540;53.242;10.408;2023-03-23T00:50:47;9.90;99.90
7000;DHT22;3540;53.242;10.408;2023-03-23T00:53:13;9.80;99.90
7000;DHT22;3540;53.242;10.408;2023-03-23T00:55:47;9.90;99.90
7000;DHT22;3540;53.242;10.408;2023-03-23T00:58:14;9.80;99.90
7000;DHT22;3540;53.242;10.408;2023-03-23T01:00:40;9.80;99.90
7000;DHT22;3540;53.242;10.408;2023-03-23T01:03:07;9.80;99.90
7000;DHT22;3540;53.242;10.408;2023-03-23T01:05:35;9.80;99.90
7000;DHT22;3540;53.242;10.408;2023-03-23T01:08:01;9.80;99.90
7000;DHT22;3540;53.242;10.408;2023-03-23T01:10:27;9.80;99.90
7000;DHT22;3540;53.242;10.408;2023-03-23T01:12:54;9.80;99.90
7000;DHT22;3540;53.242;10.408;2023-03-23T01:15:20;9.80;99.90
7000;DHT22;3540;53.242;10.408;2023-03-23T01:17:47;9.80;99.90
7000;DHT22;3540;53.242;10.408;2023-03-23T01:20:14;9.80;99.90
7000;DHT22;3540;53.242;10.408;2023-03-23T01:22:41;9.80;99.90
7000;DHT22;3540;53.242;10.408;2023-03-23T01:25:08;9.80;99.90
7000;DHT22;3540;53.242;10.408;2023-03-23T01:27:35;9.80;99.90
7000;DHT22;3540;53.242;10.408;2023-03-23T01:30:01;9.80;99.90
7000;DHT22;3540;53.242;10.408;2023-03-23T01:32:26;9.70;99.90
7000;DHT22;3540;53.242;10.408;2023-03-23T01:34:52;9.70;99.90
7000;DHT22;3540;53.242;10.408;2023-03-23T01:37:17;9.70;99.90
7000;DHT22;3540;53.242;10.408;2023-03-23T01:39:45;9.70;99.90
7000;DHT22;3540;53.242;10.408;2023-03-23T01:42:11;9.70;99.90
7000;DHT22;3540;53.242;10.408;2023-03-23T01:47:02;9.70;99.90
7000;DHT22;3540;53.242;10.408;2023-03-23T01:49:33;9.70;99.90
7000;DHT22;3540;53.242;10.408;2023-03-23T01:52:04;9.70;99.90
7000;DHT22;3540;53.242;10.408;2023-03-23T01:54:32;9.70;99.90
7000;DHT22;3540;53.242;10.408;2023-03-23T01:57:03;9.70;99.90
7000;DHT22;3540;53.242;10.408;2023-03-23T01:59:30;9.70;99.90
7000;DHT22;3540;53.242;10.408;2023-03-23T02:01:57;9.70;99.90
7000;DHT22;3540;53.242;10.408;2023-03-23T02:04:24;9.70;99.90
7000;DHT22;3540;53.242;10.408;2023-03-23T02:06:51;9.70;99.90
7000;DHT22;3540;53.242;10.408;2023-03-23T02:09:18;9.70;99.90
7000;DHT22;3540;53.242;10.408;2023-03-23T02:11:45;9.70;99.90
7000;DHT22;3540;53.242;10.408;2023-03-23T02:14:12;9.70;99.90
7000;DHT22;3540;53.242;10.408;2023-03-23T02:22:18;9.80;99.90
7000;DHT22;3540;53.242;10.408;2023-03-23T02:30:37;9.80;99.90
7000;DHT22;3540;53.242;10.408;2023-03-23T02:38:40;9.80;99.90
7000;DHT22;3540;53.242;10.408;2023-03-23T02:41:10;9.80;99.90
7000;DHT22;3540;53.242;10.408;2023-03-23T02:43:42;9.80;99.90
7000;DHT22;3540;53.242;10.408;2023-03-23T02:46:10;9.80;99.90
7000;DHT22;3540;53.242;10.408;2023-03-23T02:48:38;9.90;99.90
7000;DHT22;3540;53.242;10.408;2023-03-23T02:51:06;9.90;99.90
7000;DHT22;3540;53.242;10.408;2023-03-23T02:53:34;9.90;99.90
7000;DHT22;3540;53.242;10.408;2023-03-23T02:56:02;9.90;99.90
7000;DHT22;3540;53.242;10.408;2023-03-23T02:58:30;9.90;99.90
7000;DHT22;3540;53.242;10.408;2023-03-23T03:00:56;9.90;99.90
7000;DHT22;3540;53.242;10.408;2023-03-23T03:03:27;9.90;99.90
7000;DHT22;3540;53.242;10.408;2023-03-23T03:09:16;10.00;99.90
7000;DHT22;3540;53.242;10.408;2023-03-23T03:11:48;9.90;99.90
7000;DHT22;3540;53.242;10.408;2023-03-23T03:14:29;9.90;99.90
7000;DHT22;3540;53.242;10.408;2023-03-23T03:17:19;10.00;99.90
7000;DHT22;3540;53.242;10.408;2023-03-23T03:19:48;10.00;99.90
7000;DHT22;3540;53.242;10.408;2023-03-23T03:22:17;9.90;99.90
7000;DHT22;3540;53.242;10.408;2023-03-23T03:24:47;10.00;99.90
7000;DHT22;3540;53.242;10.408;2023-03-23T03:27:16;10.00;99.90
7000;DHT22;3540;53.242;10.408;2023-03-23T03:29:45;9.90;99.90
7000;DHT22;3540;53.242;10.408;2023-03-23T03:32:16;9.90;99.90
7000;DHT22;3540;53.242;10.408;2023-03-23T03:34:44;9.90;99.90
7000;DHT22;3540;53.242;10.408;2023-03-23T03:37:10;9.90;99.90
7000;DHT22;3540;53.242;10.408;2023-03-23T03:39:37;9.90;99.90
7000;DHT22;3540;53.242;10.408;2023-03-23T03:42:04;9.90;99.90
7000;DHT22;3540;53.242;10.408;2023-03-23T03:44:30;10.00;99.90
7000;DHT22;3540;53.242;10.408;2023-03-23T03:46:56;9.90;99.90
7000;DHT22;3540;53.242;10.408;2023-03-23T03:49:22;10.00;99.90
7000;DHT22;3540;53.242;10.408;2023-03-23T03:51:48;10.00;99.90
7000;DHT22;3540;53.242;10.408;2023-03-23T03:54:14;10.00;99.90
7000;DHT22;3540;53.242;10.408;2023-03-23T03:56:41;10.00;99.90
7000;DHT22;3540;53.242;10.408;2023-03-23T03:59:08;10.00;99.90
7000;DHT22;3540;53.242;10.408;2023-03-23T04:01:36;10.00;99.90
7000;DHT22;3540;53.242;10.408;2023-03-23T04:04:03;10.10;99.90
7000;DHT22;3540;53.242;10.408;2023-03-23T04:06:29;10.10;99.90
7000;DHT22;3540;53.242;10.408;2023-03-23T04:08:56;10.10;99.90
7000;DHT22;3540;53.242;10.408;2023-03-23T04:11:24;10.10;99.90
7000;DHT22;3540;53.242;10.408;2023-03-23T04:13:50;10.10;99.90
7000;DHT22;3540;53.242;10.408;2023-03-23T04:16:16;10.10;99.90
7000;DHT22;3540;53.242;10.408;2023-03-23T04:18:42;10.10;99.90
7000;DHT22;3540;53.242;10.408;2023-03-23T04:21:08;10.10;99.90
7000;DHT22;3540;53.242;10.408;2023-03-23T04:23:34;10.10;99.90
7000;DHT22;3540;53.242;10.408;2023-03-23T04:26:01;10.10;99.90
7000;DHT22;3540;53.242;10.408;2023-03-23T04:28:28;10.10;99.90
7000;DHT22;3540;53.242;10.408;2023-03-23T04:30:55;10.10;99.90
7000;DHT22;3540;53.242;10.408;2023-03-23T04:33:25;10.10;99.90
7000;DHT22;3540;53.242;10.408;2023-03-23T04:35:53;10.10;99.90
7000;DHT22;3540;53.242;10.408;2023-03-23T04:38:20;10.10;99.90
7000;DHT22;3540;53.242;10.408;2023-03-23T04:40:47;10.10;99.90
7000;DHT22;3540;53.242;10.408;2023-03-23T04:43:13;10.10;99.90
7000;DHT22;3540;53.242;10.408;2023-03-23T04:45:40;10.10;99.90
7000;DHT22;3540;53.242;10.408;2023-03-23T04:48:10;10.20;99.90
7000;DHT22;3540;53.242;10.408;2023-03-23T04:50:36;10.30;99.90
7000;DHT22;3540;53.242;10.408;2023-03-23T04:53:03;10.30;99.90
7000;DHT22;3540;53.242;10.408;2023-03-23T04:55:30;10.30;99.90
7000;DHT22;3540;53.242;10.408;2023-03-23T04:57:57;10.20;99.90
7000;DHT22;3540;53.242;10.408;2023-03-23T05:00:27;10.20;99.90
7000;DHT22;3540;53.242;10.408;2023-03-23T05:02:52;10.30;99.90
7000;DHT22;3540;53.242;10.408;2023-03-23T05:05:21;10.30;99.90
7000;DHT22;3540;53.242;10.408;2023-03-23T05:07:47;10.30;99.90
7000;DHT22;3540;53.242;10.408;2023-03-23T05:10:14;10.30;99.90
7000;DHT22;3540;53.242;10.408;2023-03-23T05:12:41;10.20;99.90
7000;DHT22;3540;53.242;10.408;2023-03-23T05:15:11;10.30;99.90
7000;DHT22;3540;53.242;10.408;2023-03-23T05:17:37;10.30;99.90
7000;DHT22;3540;53.242;10.408;2023-03-23T05:20:05;10.30;99.90
7000;DHT22;3540;53.242;10.408;2023-03-23T05:22:33;10.30;99.90
7000;DHT22;3540;53.242;10.408;2023-03-23T05:25:00;10.20;99.90
7000;DHT22;3540;53.242;10.408;2023-03-23T05:27:28;10.20;99.90
7000;DHT22;3540;53.242;10.408;2023-03-23T05:29:56;10.20;99.90
7000;DHT22;3540;53.242;10.408;2023-03-23T05:32:27;10.20;99.90
7000;DHT22;3540;53.242;10.408;2023-03-23T05:34:58;10.20;99.90
7000;DHT22;3540;53.242;10.408;2023-03-23T05:37:25;10.20;99.90
7000;DHT22;3540;53.242;10.408;2023-03-23T05:39:52;10.20;99.90
7000;DHT22;3540;53.242;10.408;2023-03-23T05:42:22;10.10;99.90
7000;DHT22;3540;53.242;10.408;2023-03-23T05:44:48;10.20;99.90
7000;DHT22;3540;53.242;10.408;2023-03-23T05:47:14;10.20;99.90
7000;DHT22;3540;53.242;10.408;2023-03-23T05:49:40;10.20;99.90
7000;DHT22;3540;53.242;10.408;2023-03-23T05:52:05;10.20;99.90
7000;DHT22;3540;53.242;10.408;2023-03-23T05:54:31;10.20;99.90
7000;DHT22;3540;53.242;10.408;2023-03-23T05:56:57;10.20;99.90
7000;DHT22;3540;53.242;10.408;2023-03-23T05:59:22;10.20;99.90
7000;DHT22;3540;53.242;10.408;2023-03-23T06:01:48;10.20;99.90
7000;DHT22;3540;53.242;10.408;2023-03-23T06:04:15;10.20;99.90
7000;DHT22;3540;53.242;10.408;2023-03-23T06:06:40;10.30;99.90
7000;DHT22;3540;53.242;10.408;2023-03-23T06:09:07;10.30;99.90
7000;DHT22;3540;53.242;10.408;2023-03-23T06:11:32;10.30;99.90
7000;DHT22;3540;53.242;10.408;2023-03-23T06:13:59;10.30;99.90
7000;DHT22;3540;53.242;10.408;2023-03-23T06:16:25;10.40;99.90
7000;DHT22;3540;53.242;10.408;2023-03-23T06:18:50;10.40;99.90
7000;DHT22;3540;53.242;10.408;2023-03-23T06:21:16;10.40;99.90
7000;DHT22;3540;53.242;10.408;2023-03-23T06:23:44;10.40;99.90
7000;DHT22;3540;53.242;10.408;2023-03-23T06:26:13;10.40;99.90
7000;DHT22;3540;53.242;10.408;2023-03-23T06:28:39;10.40;99.90
7000;DHT22;3540;53.242;10.408;2023-03-23T06:31:06;10.40;1.00
7000;DHT22;3540;53.242;10.408;2023-03-23T06:33:36;10.50;1.00
7000;DHT22;3540;53.242;10.408;2023-03-23T06:36:03;10.50;99.90
7000;DHT22;3540;53.242;10.408;2023-03-23T06:38:28;10.50;99.90
7000;DHT22;3540;53.242;10.408;2023-03-23T06:40:55;10.60;1.00
7000;DHT22;3540;53.242;10.408;2023-03-23T06:43:21;10.70;35.90
7000;DHT22;3540;53.242;10.408;2023-03-23T06:45:47;10.70;99.90
7000;DHT22;3540;53.242;10.408;2023-03-23T06:48:13;10.70;1.00
7000;DHT22;3540;53.242;10.408;2023-03-23T06:50:41;10.60;99.90
7000;DHT22;3540;53.242;10.408;2023-03-23T06:53:07;10.60;99.90
7000;DHT22;3540;53.242;10.408;2023-03-23T06:55:33;10.60;1.00
7000;DHT22;3540;53.242;10.408;2023-03-23T06:57:59;10.70;1.00
7000;DHT22;3540;53.242;10.408;2023-03-23T07:00:27;10.70;1.00
7000;DHT22;3540;53.242;10.408;2023-03-23T07:02:52;10.80;99.90
7000;DHT22;3540;53.242;10.408;2023-03-23T07:05:18;10.90;1.00
7000;DHT22;3540;53.242;10.408;2023-03-23T07:07:45;10.80;1.00
7000;DHT22;3540;53.242;10.408;2023-03-23T07:10:11;10.90;99.90
7000;DHT22;3540;53.242;10.408;2023-03-23T07:12:37;10.90;1.00
7000;DHT22;3540;53.242;10.408;2023-03-23T07:15:04;11.00;1.00
7000;DHT22;3540;53.242;10.408;2023-03-23T07:17:30;11.10;1.00
7000;DHT22;3540;53.242;10.408;2023-03-23T07:19:55;11.10;99.90
7000;DHT22;3540;53.242;10.408;2023-03-23T07:22:21;11.10;99.90
7000;DHT22;3540;53.242;10.408;2023-03-23T07:24:47;11.10;99.90
7000;DHT22;3540;53.242;10.408;2023-03-23T07:27:13;11.10;99.90
7000;DHT22;3540;53.242;10.408;2023-03-23T07:29:39;11.10;99.90
7000;DHT22;3540;53.242;10.408;2023-03-23T07:32:05;11.20;82.70
7000;DHT22;3540;53.242;10.408;2023-03-23T07:34:31;11.20;62.50
7000;DHT22;3540;53.242;10.408;2023-03-23T07:36:58;11.20;1.00
7000;DHT22;3540;53.242;10.408;2023-03-23T07:39:24;11.30;1.00
7000;DHT22;3540;53.242;10.408;2023-03-23T07:41:52;11.40;1.00
7000;DHT22;3540;53.242;10.408;2023-03-23T07:44:17;11.50;1.00
7000;DHT22;3540;53.242;10.408;2023-03-23T07:46:43;11.50;1.00
7000;DHT22;3540;53.242;10.408;2023-03-23T07:49:09;11.50;1.00
7000;DHT22;3540;53.242;10.408;2023-03-23T07:51:36;11.40;1.00
7000;DHT22;3540;53.242;10.408;2023-03-23T07:54:04;11.40;1.00
7000;DHT22;3540;53.242;10.408;2023-03-23T07:56:31;11.20;99.90
7000;DHT22;3540;53.242;10.408;2023-03-23T07:58:57;11.10;99.90
7000;DHT22;3540;53.242;10.408;2023-03-23T08:01:23;11.00;1.00
7000;DHT22;3540;53.242;10.408;2023-03-23T08:03:51;11.00;1.00
7000;DHT22;3540;53.242;10.408;2023-03-23T08:06:17;11.00;99.90
7000;DHT22;3540;53.242;10.408;2023-03-23T08:08:43;10.90;99.90
7000;DHT22;3540;53.242;10.408;2023-03-23T08:11:09;10.90;1.00
7000;DHT22;3540;53.242;10.408;2023-03-23T08:13:34;10.80;1.00
7000;DHT22;3540;53.242;10.408;2023-03-23T08:16:01;10.90;1.00
7000;DHT22;3540;53.242;10.408;2023-03-23T08:18:30;11.20;1.00
7000;DHT22;3540;53.242;10.408;2023-03-23T08:20:57;11.40;1.00
7000;DHT22;3540;53.242;10.408;2023-03-23T08:23:23;11.50;1.00
7000;DHT22;3540;53.242;10.408;2023-03-23T08:25:48;11.60;99.90
7000;DHT22;3540;53.242;10.408;2023-03-23T08:28:14;11.70;1.00
7000;DHT22;3540;53.242;10.408;2023-03-23T08:30:41;11.70;99.90
7000;DHT22;3540;53.242;10.408;2023-03-23T08:33:07;11.80;1.00
7000;DHT22;3540;53.242;10.408;2023-03-23T08:35:36;11.90;1.00
7000;DHT22;3540;53.242;10.408;2023-03-23T08:38:02;12.00;1.00
7000;DHT22;3540;53.242;10.408;2023-03-23T08:40:28;12.10;1.00
7000;DHT22;3540;53.242;10.408;2023-03-23T08:42:54;12.10;1.00
7000;DHT22;3540;53.242;10.408;2023-03-23T08:45:22;12.20;1.00
7000;DHT22;3540;53.242;10.408;2023-03-23T08:47:49;12.10;99.90
7000;DHT22;3540;53.242;10.408;2023-03-23T08:50:24;12.10;99.90
7000;DHT22;3540;53.242;10.408;2023-03-23T08:52:50;12.10;99.90
7000;DHT22;3540;53.242;10.408;2023-03-23T08:55:16;12.20;99.90
7000;DHT22;3540;53.242;10.408;2023-03-23T08:57:43;12.30;99.90
7000;DHT22;3540;53.242;10.408;2023-03-23T09:00:12;12.30;99.90
7000;DHT22;3540;53.242;10.408;2023-03-23T09:02:45;12.30;99.90
7000;DHT22;3540;53.242;10.408;2023-03-23T09:05:11;12.40;99.90
7000;DHT22;3540;53.242;10.408;2023-03-23T09:07:39;12.40;99.90
7000;DHT22;3540;53.242;10.408;2023-03-23T09:10:05;12.30;99.90
7000;DHT22;3540;53.242;10.408;2023-03-23T09:12:31;12.30;99.90
7000;DHT22;3540;53.242;10.408;2023-03-23T09:14:57;12.20;99.90
7000;DHT22;3540;53.242;10.408;2023-03-23T09:17:23;12.10;99.90
7000;DHT22;3540;53.242;10.408;2023-03-23T09:19:48;11.90;99.90
7000;DHT22;3540;53.242;10.408;2023-03-23T09:22:14;12.00;99.90
7000;DHT22;3540;53.242;10.408;2023-03-23T09:24:41;12.10;99.90
7000;DHT22;3540;53.242;10.408;2023-03-23T09:27:07;12.20;99.90
7000;DHT22;3540;53.242;10.408;2023-03-23T09:29:32;12.10;99.90
7000;DHT22;3540;53.242;10.408;2023-03-23T09:31:58;12.00;99.90
7000;DHT22;3540;53.242;10.408;2023-03-23T09:34:25;11.90;99.90
7000;DHT22;3540;53.242;10.408;2023-03-23T09:36:50;11.80;99.90
7000;DHT22;3540;53.242;10.408;2023-03-23T09:39:17;11.80;99.90
7000;DHT22;3540;53.242;10.408;2023-03-23T09:44:38;11.80;99.90
7000;DHT22;3540;53.242;10.408;2023-03-23T09:47:25;11.80;99.90
7000;DHT22;3540;53.242;10.408;2023-03-23T09:49:57;11.70;99.90
7000;DHT22;3540;53.242;10.408;2023-03-23T09:52:55;11.70;81.50
7000;DHT22;3540;53.242;10.408;2023-03-23T09:55:21;11.70;22.20
7000;DHT22;3540;53.242;10.408;2023-03-23T09:58:00;11.70;6.70
7000;DHT22;3540;53.242;10.408;2023-03-23T10:00:36;11.60;1.00
7000;DHT22;3540;53.242;10.408;2023-03-23T10:03:14;11.70;1.00
7000;DHT22;3540;53.242;10.408;2023-03-23T10:05:47;11.80;1.00
7000;DHT22;3540;53.242;10.408;2023-03-23T10:08:20;11.90;1.00
7000;DHT22;3540;53.242;10.408;2023-03-23T10:13:48;12.00;1.00
7000;DHT22;3540;53.242;10.408;2023-03-23T10:16:20;12.00;1.00
7000;DHT22;3540;53.242;10.408;2023-03-23T10:18:53;11.90;1.00
7000;DHT22;3540;53.242;10.408;2023-03-23T10:21:23;11.80;1.00
7000;DHT22;3540;53.242;10.408;2023-03-23T10:24:00;11.70;1.00
7000;DHT22;3540;53.242;10.408;2023-03-23T10:26:41;11.60;1.00
7000;DHT22;3540;53.242;10.408;2023-03-23T10:29:27;11.60;12.90
7000;DHT22;3540;53.242;10.408;2023-03-23T10:32:04;11.50;47.30
7000;DHT22;3540;53.242;10.408;2023-03-23T10:37:24;11.70;25.60
7000;DHT22;3540;53.242;10.408;2023-03-23T10:39:56;11.60;15.80
7000;DHT22;3540;53.242;10.408;2023-03-23T10:42:28;11.80;35.70
7000;DHT22;3540;53.242;10.408;2023-03-23T10:44:56;12.00;7.50
7000;DHT22;3540;53.242;10.408;2023-03-23T10:47:23;12.10;1.00
7000;DHT22;3540;53.242;10.408;2023-03-23T10:49:58;12.00;1.00
7000;DHT22;3540;53.242;10.408;2023-03-23T10:52:37;11.80;1.00
7000;DHT22;3540;53.242;10.408;2023-03-23T10:55:15;11.70;1.00
7000;DHT22;3540;53.242;10.408;2023-03-23T10:57:44;11.60;1.00
7000;DHT22;3540;53.242;10.408;2023-03-23T11:00:24;11.60;38.00
7000;DHT22;3540;53.242;10.408;2023-03-23T11:03:07;11.50;99.90
7000;DHT22;3540;53.242;10.408;2023-03-23T11:05:53;11.40;99.90
7000;DHT22;3540;53.242;10.408;2023-03-23T11:08:21;11.30;99.90
7000;DHT22;3540;53.242;10.408;2023-03-23T11:10:59;11.30;99.90
7000;DHT22;3540;53.242;10.408;2023-03-23T11:13:30;11.20;99.90
7000;DHT22;3540;53.242;10.408;2023-03-23T11:15:56;11.30;99.90
7000;DHT22;3540;53.242;10.408;2023-03-23T11:18:38;11.20;99.90
7000;DHT22;3540;53.242;10.408;2023-03-23T11:21:05;11.10;99.90
7000;DHT22;3540;53.242;10.408;2023-03-23T11:23:35;11.20;1.00
7000;DHT22;3540;53.242;10.408;2023-03-23T11:29:21;11.30;99.90
7000;DHT22;3540;53.242;10.408;2023-03-23T11:31:42;11.30;99.90
7000;DHT22;3540;53.242;10.408;2023-03-23T11:37:05;11.70;99.90
7000;DHT22;3540;53.242;10.408;2023-03-23T11:39:47;11.70;89.50
7000;DHT22;3540;53.242;10.408;2023-03-23T11:42:19;11.70;66.70
7000;DHT22;3540;53.242;10.408;2023-03-23T11:44:46;11.70;50.80
7000;DHT22;3540;53.242;10.408;2023-03-23T11:47:22;11.70;44.00
7000;DHT22;3540;53.242;10.408;2023-03-23T11:50:08;11.60;1.00
7000;DHT22;3540;53.242;10.408;2023-03-23T11:58:23;11.70;1.00
7000;DHT22;3540;53.242;10.408;2023-03-23T12:01:12;11.70;1.00
7000;DHT22;3540;53.242;10.408;2023-03-23T12:09:50;11.70;1.00
7000;DHT22;3540;53.242;10.408;2023-03-23T12:12:31;11.70;1.00
7000;DHT22;3540;53.242;10.408;2023-03-23T12:15:43;11.80;1.00
7000;DHT22;3540;53.242;10.408;2023-03-23T12:21:26;11.90;1.00
7000;DHT22;3540;53.242;10.408;2023-03-23T12:26:31;12.20;1.00
7000;DHT22;3540;53.242;10.408;2023-03-23T12:29:19;12.60;1.00
7000;DHT22;3540;53.242;10.408;2023-03-23T12:34:47;13.20;1.00
7000;DHT22;3540;53.242;10.408;2023-03-23T12:37:56;13.10;1.00
7000;DHT22;3540;53.242;10.408;2023-03-23T12:43:19;12.70;1.00
7000;DHT22;3540;53.242;10.408;2023-03-23T12:48:40;12.70;1.00
7000;DHT22;3540;53.242;10.408;2023-03-23T12:54:27;12.90;1.00
7000;DHT22;3540;53.242;10.408;2023-03-23T12:57:13;13.10;1.00
7000;DHT22;3540;53.242;10.408;2023-03-23T13:02:16;12.70;1.00
7000;DHT22;3540;53.242;10.408;2023-03-23T13:04:50;12.60;1.00
7000;DHT22;3540;53.242;10.408;2023-03-23T13:07:22;12.60;1.00
7000;DHT22;3540;53.242;10.408;2023-03-23T13:10:22;12.50;1.00
7000;DHT22;3540;53.242;10.408;2023-03-23T13:12:47;12.40;1.00
7000;DHT22;3540;53.242;10.408;2023-03-23T13:17:50;12.30;1.00
7000;DHT22;3540;53.242;10.408;2023-03-23T13:20:41;12.40;1.00
7000;DHT22;3540;53.242;10.408;2023-03-23T13:23:33;12.60;1.00
7000;DHT22;3540;53.242;10.408;2023-03-23T13:26:02;13.10;1.00
7000;DHT22;3540;53.242;10.408;2023-03-23T13:28:43;13.10;1.00
7000;DHT22;3540;53.242;10.408;2023-03-23T13:31:15;13.20;1.00
7000;DHT22;3540;53.242;10.408;2023-03-23T13:34:06;13.20;1.00
7000;DHT22;3540;53.242;10.408;2023-03-23T13:36:38;13.10;1.00
7000;DHT22;3540;53.242;10.408;2023-03-23T13:39:06;13.10;1.00
7000;DHT22;3540;53.242;10.408;2023-03-23T13:41:34;13.10;1.00
7000;DHT22;3540;53.242;10.408;2023-03-23T13:44:25;13.10;1.00
7000;DHT22;3540;53.242;10.408;2023-03-23T13:47:07;13.50;1.00
7000;DHT22;3540;53.242;10.408;2023-03-23T13:49:46;13.60;1.00
7000;DHT22;3540;53.242;10.408;2023-03-23T13:52:37;13.60;1.00
7000;DHT22;3540;53.242;10.408;2023-03-23T13:57:56;13.40;1.00
7000;DHT22;3540;53.242;10.408;2023-03-23T14:00:33;13.30;1.00
7000;DHT22;3540;53.242;10.408;2023-03-23T14:03:23;13.40;1.00
7000;DHT22;3540;53.242;10.408;2023-03-23T14:08:39;13.50;1.00
7000;DHT22;3540;53.242;10.408;2023-03-23T14:11:15;13.40;1.00
7000;DHT22;3540;53.242;10.408;2023-03-23T14:19:24;13.20;1.00
7000;DHT22;3540;53.242;10.408;2023-03-23T14:21:55;13.30;1.00
7000;DHT22;3540;53.242;10.408;2023-03-23T14:24:30;13.40;1.00
7000;DHT22;3540;53.242;10.408;2023-03-23T14:29:41;13.20;1.00
7000;DHT22;3540;53.242;10.408;2023-03-23T14:32:14;13.20;1.00
7000;DHT22;3540;53.242;10.408;2023-03-23T14:34:41;13.40;1.00
7000;DHT22;3540;53.242;10.408;2023-03-23T14:37:11;13.40;1.00
7000;DHT22;3540;53.242;10.408;2023-03-23T14:39:38;13.30;1.00
7000;DHT22;3540;53.242;10.408;2023-03-23T14:42:13;13.30;1.00
7000;DHT22;3540;53.242;10.408;2023-03-23T14:44:43;13.40;1.00
7000;DHT22;3540;53.242;10.408;2023-03-23T14:47:25;13.40;1.00
7000;DHT22;3540;53.242;10.408;2023-03-23T14:49:59;13.40;1.00
7000;DHT22;3540;53.242;10.408;2023-03-23T14:52:28;13.30;1.00
7000;DHT22;3540;53.242;10.408;2023-03-23T14:54:54;13.40;1.00
7000;DHT22;3540;53.242;10.408;2023-03-23T14:57:28;13.40;1.00
7000;DHT22;3540;53.242;10.408;2023-03-23T14:59:55;13.50;1.00
7000;DHT22;3540;53.242;10.408;2023-03-23T15:02:36;13.50;1.00
7000;DHT22;3540;53.242;10.408;2023-03-23T15:05:17;13.40;1.00
7000;DHT22;3540;53.242;10.408;2023-03-23T15:07:47;13.40;1.00
7000;DHT22;3540;53.242;10.408;2023-03-23T15:10:19;13.40;1.00
7000;DHT22;3540;53.242;10.408;2023-03-23T15:12:47;13.50;1.00
7000;DHT22;3540;53.242;10.408;2023-03-23T15:15:31;13.60;1.00
7000;DHT22;3540;53.242;10.408;2023-03-23T15:17:59;13.60;1.00
7000;DHT22;3540;53.242;10.408;2023-03-23T15:20:31;13.60;1.00
7000;DHT22;3540;53.242;10.408;2023-03-23T15:23:05;13.70;1.00
7000;DHT22;3540;53.242;10.408;2023-03-23T15:25:33;13.50;1.00
7000;DHT22;3540;53.242;10.408;2023-03-23T15:28:19;13.40;1.00
7000;DHT22;3540;53.242;10.408;2023-03-23T15:30:50;13.30;1.00
7000;DHT22;3540;53.242;10.408;2023-03-23T15:33:16;13.30;1.00
7000;DHT22;3540;53.242;10.408;2023-03-23T15:35:49;13.20;1.00
7000;DHT22;3540;53.242;10.408;2023-03-23T15:38:25;13.20;1.00
7000;DHT22;3540;53.242;10.408;2023-03-23T15:40:54;13.20;1.00
7000;DHT22;3540;53.242;10.408;2023-03-23T15:43:25;13.10;1.00
7000;DHT22;3540;53.242;10.408;2023-03-23T15:45:58;12.90;1.00
7000;DHT22;3540;53.242;10.408;2023-03-23T15:48:33;12.30;1.00
7000;DHT22;3540;53.242;10.408;2023-03-23T15:51:01;11.70;1.00
7000;DHT22;3540;53.242;10.408;2023-03-23T15:53:33;11.30;1.00
7000;DHT22;3540;53.242;10.408;2023-03-23T15:56:04;11.10;1.00
7000;DHT22;3540;53.242;10.408;2023-03-23T15:58:31;11.20;1.00
7000;DHT22;3540;53.242;10.408;2023-03-23T16:00:57;11.30;1.00
7000;DHT22;3540;53.242;10.408;2023-03-23T16:03:28;11.30;1.00
7000;DHT22;3540;53.242;10.408;2023-03-23T16:05:56;11.30;1.00
7000;DHT22;3540;53.242;10.408;2023-03-23T16:08:24;11.20;1.00
7000;DHT22;3540;53.242;10.408;2023-03-23T16:10:50;11.10;1.00
7000;DHT22;3540;53.242;10.408;2023-03-23T16:13:15;11.00;61.00
7000;DHT22;3540;53.242;10.408;2023-03-23T16:15:43;11.00;76.80
7000;DHT22;3540;53.242;10.408;2023-03-23T16:18:19;10.90;99.90
7000;DHT22;3540;53.242;10.408;2023-03-23T16:20:49;10.80;99.90
7000;DHT22;3540;53.242;10.408;2023-03-23T16:23:15;10.80;99.90
7000;DHT22;3540;53.242;10.408;2023-03-23T16:25:40;10.70;99.90
7000;DHT22;3540;53.242;10.408;2023-03-23T16:28:12;10.60;99.90
7000;DHT22;3540;53.242;10.408;2023-03-23T16:30:39;10.50;90.60
7000;DHT22;3540;53.242;10.408;2023-03-23T16:33:05;10.40;99.90
7000;DHT22;3540;53.242;10.408;2023-03-23T16:35:31;10.40;99.90
7000;DHT22;3540;53.242;10.408;2023-03-23T16:37:57;10.20;99.90
7000;DHT22;3540;53.242;10.408;2023-03-23T16:40:23;10.20;99.90
7000;DHT22;3540;53.242;10.408;2023-03-23T16:42:49;10.20;99.90
7000;DHT22;3540;53.242;10.408;2023-03-23T16:45:16;10.20;92.60
7000;DHT22;3540;53.242;10.408;2023-03-23T16:47:42;10.30;93.00
7000;DHT22;3540;53.242;10.408;2023-03-23T16:50:11;10.40;89.50
7000;DHT22;3540;53.242;10.408;2023-03-23T16:52:39;10.50;67.60
7000;DHT22;3540;53.242;10.408;2023-03-23T16:55:05;10.40;52.50
7000;DHT22;3540;53.242;10.408;2023-03-23T16:57:32;10.40;49.30
7000;DHT22;3540;53.242;10.408;2023-03-23T17:00:04;10.40;70.20
7000;DHT22;3540;53.242;10.408;2023-03-23T17:02:31;10.30;97.90
7000;DHT22;3540;53.242;10.408;2023-03-23T17:04:57;10.20;99.90
7000;DHT22;3540;53.242;10.408;2023-03-23T17:07:23;10.10;99.90
7000;DHT22;3540;53.242;10.408;2023-03-23T17:09:48;10.00;99.90
7000;DHT22;3540;53.242;10.408;2023-03-23T17:12:14;10.00;99.90
7000;DHT22;3540;53.242;10.408;2023-03-23T17:14:40;9.90;99.90
7000;DHT22;3540;53.242;10.408;2023-03-23T17:17:06;9.90;99.90
7000;DHT22;3540;53.242;10.408;2023-03-23T17:19:32;9.80;1.00
7000;DHT22;3540;53.242;10.408;2023-03-23T17:21:57;9.80;1.00
7000;DHT22;3540;53.242;10.408;2023-03-23T17:24:23;9.70;1.00
7000;DHT22;3540;53.242;10.408;2023-03-23T17:26:49;9.70;1.00
7000;DHT22;3540;53.242;10.408;2023-03-23T17:29:15;9.60;1.00
7000;DHT22;3540;53.242;10.408;2023-03-23T17:31:40;9.50;1.00
7000;DHT22;3540;53.242;10.408;2023-03-23T17:34:06;9.50;82.40
7000;DHT22;3540;53.242;10.408;2023-03-23T17:36:32;9.40;99.90